Time;durP1;ratioP1;P1;durP2;ratioP2;P2;SDS_P1;SDS_P2;PMS_P1;PMS_P2;Temp;Humidity;BMP_temperature;BMP_pressure;BME280_temperature;BME280_humidity;BME280_pressure;Samples;Min_cycle;Max_cycle;Signal;HPM_P1;HPM_P2
2021/12/22 00:01:58;;;;;;;21.52;9.10;;;;;;;2.94;50.73;102153.47;5014275;28;20049;-75
2021/12/22 00:04:25;;;;;;;22.65;10.43;;;;;;;2.94;50.67;102158.78;5012864;28;20054;-74
2021/12/22 00:06:53;;;;;;;23.42;10.15;;;;;;;2.21;53.05;102158.69;5013296;28;20120;-74
2021/12/22 00:09:19;;;;;;;19.85;9.68;;;;;;;1.90;53.80;102144.19;5013357;28;20076;-74
2021/12/22 00:11:48;;;;;;;21.35;8.55;;;;;;;1.51;54.50;102149.47;5013840;28;20076;-74
2021/12/22 00:14:16;;;;;;;22.25;8.30;;;;;;;1.90;53.54;102154.75;5013122;28;20133;-74
2021/12/22 00:16:42;;;;;;;22.35;9.32;;;;;;;2.49;52.17;102158.25;5013772;28;20068;-74
2021/12/22 00:19:09;;;;;;;21.20;9.30;;;;;;;2.73;51.17;102160.69;5012254;28;19948;-74
2021/12/22 00:21:35;;;;;;;23.13;9.32;;;;;;;2.72;51.06;102159.81;5013424;28;20142;-73
2021/12/22 00:24:02;;;;;;;21.17;9.32;;;;;;;2.40;52.46;102153.38;5013980;28;20133;-73
2021/12/22 00:26:29;;;;;;;22.50;10.55;;;;;;;2.64;51.52;102152.22;5014613;28;20108;-73
2021/12/22 00:28:55;;;;;;;29.27;10.32;;;;;;;2.38;51.72;102156.13;5014055;28;20132;-74
2021/12/22 00:31:22;;;;;;;25.10;9.70;;;;;;;2.64;51.41;102156.66;5013394;28;20125;-73
2021/12/22 00:33:50;;;;;;;20.38;9.10;;;;;;;2.80;50.66;102147.06;5012903;28;20463;-73
2021/12/22 00:36:21;;;;;;;21.95;9.45;;;;;;;2.82;50.45;102146.97;5015159;28;20048;-74
2021/12/22 00:38:48;;;;;;;23.30;10.18;;;;;;;2.76;50.51;102152.59;5014511;28;20132;-73
2021/12/22 00:41:15;;;;;;;20.83;9.55;;;;;;;2.62;51.26;102164.69;5015044;28;20134;-74
2021/12/22 00:43:41;;;;;;;23.33;10.35;;;;;;;2.27;52.13;102155.78;5012643;28;20064;-73
2021/12/22 00:46:08;;;;;;;27.85;10.55;;;;;;;2.58;50.69;102162.25;5013630;28;20110;-73
2021/12/22 00:48:34;;;;;;;24.77;10.27;;;;;;;2.63;50.81;102166.41;5013566;28;20050;-73
2021/12/22 00:51:01;;;;;;;28.08;10.65;;;;;;;2.84;50.44;102169.81;5014463;28;20030;-73
2021/12/22 00:53:28;;;;;;;25.83;10.90;;;;;;;2.71;51.04;102166.03;5015196;28;20399;-73
2021/12/22 00:55:55;;;;;;;23.58;10.98;;;;;;;2.89;50.34;102181.06;5016632;28;20150;-73
2021/12/22 00:58:21;;;;;;;29.35;13.25;;;;;;;2.93;50.53;102178.25;5015804;28;20458;-74
2021/12/22 01:00:49;;;;;;;27.08;11.05;;;;;;;2.35;51.89;102181.91;5017130;28;20073;-74
2021/12/22 01:03:18;;;;;;;28.17;11.65;;;;;;;2.23;52.31;102178.00;5018211;28;20046;-74
2021/12/22 01:05:45;;;;;;;21.65;11.38;;;;;;;2.41;51.99;102176.31;5018086;28;20042;-75
2021/12/22 01:08:11;;;;;;;28.23;12.13;;;;;;;2.74;50.77;102170.34;5018488;28;20469;-76
2021/12/22 01:10:38;;;;;;;25.02;11.95;;;;;;;2.85;50.44;102171.53;5015279;28;20707;-73
2021/12/22 01:13:06;;;;;;;26.58;11.55;;;;;;;2.53;50.87;102180.16;5017320;28;20044;-73
2021/12/22 01:15:35;;;;;;;27.80;11.88;;;;;;;2.38;51.61;102174.66;5016652;28;20129;-75
2021/12/22 01:18:10;;;;;;;22.55;11.27;;;;;;;2.48;51.30;102172.44;5030015;28;20135;-75
2021/12/22 01:20:59;;;;;;;27.73;12.60;;;;;;;2.65;50.35;102167.22;5015649;28;20153;-75
2021/12/22 01:23:33;;;;;;;32.13;11.10;;;;;;;2.09;51.68;102161.91;5013351;28;20423;-75
2021/12/22 01:25:59;;;;;;;28.52;12.68;;;;;;;2.70;50.30;102166.97;5015281;28;20042;-75
2021/12/22 01:28:27;;;;;;;20.58;10.90;;;;;;;2.82;49.56;102165.50;5015799;28;20910;-75
2021/12/22 01:31:00;;;;;;;30.00;11.52;;;;;;;2.89;49.87;102169.59;5017175;28;20095;-75
2021/12/22 01:33:27;;;;;;;26.60;11.85;;;;;;;2.86;49.55;102170.63;5016574;28;20050;-75
2021/12/22 01:35:54;;;;;;;27.38;10.93;;;;;;;3.00;49.80;102180.53;5016683;28;20471;-75
2021/12/22 01:38:20;;;;;;;28.00;11.38;;;;;;;3.05;49.12;102183.81;5016181;28;20088;-75
2021/12/22 01:40:47;;;;;;;27.92;9.95;;;;;;;2.98;49.29;102181.53;5016226;28;20128;-75
2021/12/22 01:43:15;;;;;;;22.90;10.68;;;;;;;3.07;48.66;102189.91;5015684;28;20117;-75
2021/12/22 01:45:54;;;;;;;22.08;9.90;;;;;;;2.81;49.31;102190.31;5016480;28;20542;-75
2021/12/22 01:49:13;;;;;;;18.88;9.13;;;;;;;3.09;48.70;102189.81;5013855;28;20491;-75
2021/12/22 01:52:00;;;;;;;20.92;10.15;;;;;;;3.13;48.25;102192.25;5013464;28;20058;-75
2021/12/22 01:54:27;;;;;;;25.55;9.48;;;;;;;3.09;48.11;102189.81;5014303;28;20096;-75
2021/12/22 01:56:59;;;;;;;18.98;10.10;;;;;;;3.13;48.25;102194.91;5015064;28;20073;-75
2021/12/22 01:59:26;;;;;;;22.10;10.30;;;;;;;3.19;48.09;102187.56;5014974;28;20521;-75
2021/12/22 02:01:53;;;;;;;22.88;11.30;;;;;;;2.43;50.19;102193.84;5015360;28;20050;-75
2021/12/22 02:04:19;;;;;;;20.70;11.25;;;;;;;2.72;49.52;102183.69;5014917;28;20109;-75
2021/12/22 02:07:41;;;;;;;24.42;10.80;;;;;;;3.14;47.55;102187.81;5016584;28;20128;-75
2021/12/22 02:12:55;;;;;;;23.67;9.10;;;;;;;2.57;48.79;102181.75;5012875;28;19921;-74
2021/12/22 02:15:22;;;;;;;23.92;10.43;;;;;;;2.95;48.77;102181.69;5012610;28;20065;-74
2021/12/22 02:17:49;;;;;;;20.92;10.13;;;;;;;2.76;48.74;102177.28;5014122;28;20465;-74
2021/12/22 02:20:16;;;;;;;18.55;9.70;;;;;;;3.06;47.71;102174.06;5015652;28;20073;-74
2021/12/22 02:22:44;;;;;;;27.20;11.32;;;;;;;2.43;49.88;102175.28;5015190;28;20124;-73
2021/12/22 02:25:18;;;;;;;21.45;9.98;;;;;;;2.94;48.42;102175.53;5016455;28;20053;-74
2021/12/22 02:27:51;;;;;;;18.80;9.70;;;;;;;2.88;48.59;102170.53;5016145;28;20435;-74
2021/12/22 02:30:24;;;;;;;21.95;10.52;;;;;;;2.47;49.15;102167.22;5015139;28;20138;-74
2021/12/22 02:35:26;;;;;;;21.67;10.43;;;;;;;2.50;49.86;102175.00;5015517;28;20069;-74
2021/12/22 02:37:53;;;;;;;25.92;10.88;;;;;;;2.95;48.51;102171.09;5015558;28;20046;-74
2021/12/22 02:40:26;;;;;;;17.20;9.90;;;;;;;3.19;47.78;102177.81;5014707;28;20104;-74
2021/12/22 02:43:03;;;;;;;22.33;10.52;;;;;;;3.02;48.46;102170.69;5016898;28;20061;-74
2021/12/22 02:45:29;;;;;;;22.45;11.05;;;;;;;2.84;48.67;102159.22;5013680;28;20136;-74
2021/12/22 02:47:55;;;;;;;25.30;11.13;;;;;;;3.05;48.46;102159.09;5013437;28;20069;-74
2021/12/22 02:50:22;;;;;;;22.50;10.85;;;;;;;3.06;48.62;102169.59;5014899;28;20041;-74
2021/12/22 02:56:37;;;;;;;25.10;10.90;;;;;;;3.11;48.45;102167.59;5010077;28;20080;-74
2021/12/22 03:04:09;;;;;;;22.60;9.45;;;;;;;2.80;49.16;102162.94;5011897;28;20046;-74
2021/12/22 03:06:53;;;;;;;22.00;10.02;;;;;;;3.08;47.98;102158.94;5014132;28;20062;-74
2021/12/22 03:09:32;;;;;;;20.38;9.45;;;;;;;3.08;48.18;102161.59;5014811;28;20049;-74
2021/12/22 03:12:02;;;;;;;21.55;10.15;;;;;;;3.16;48.51;102156.75;5013841;28;20050;-74
2021/12/22 03:14:29;;;;;;;17.67;8.43;;;;;;;2.91;48.80;102160.63;5014105;28;20069;-74
2021/12/22 03:16:57;;;;;;;25.60;9.10;;;;;;;2.48;49.78;102160.97;5006287;28;20454;-74
2021/12/22 03:19:30;;;;;;;18.58;8.18;;;;;;;1.84;50.37;102160.31;5012998;28;20399;-74
2021/12/22 03:22:03;;;;;;;14.32;6.43;;;;;;;2.44;49.18;102154.97;5013389;28;20049;-74
2021/12/22 03:24:32;;;;;;;12.23;6.50;;;;;;;2.43;48.63;102147.94;5013873;28;20061;-74
2021/12/22 03:27:02;;;;;;;15.60;5.85;;;;;;;2.71;48.07;102165.19;5012057;28;20139;-74
2021/12/22 03:29:31;;;;;;;9.18;3.92;;;;;;;2.42;48.17;102157.69;5012914;28;20053;-74
2021/12/22 03:31:58;;;;;;;13.02;3.80;;;;;;;2.12;48.41;102167.06;5012375;28;20493;-74
2021/12/22 03:34:25;;;;;;;10.55;4.28;;;;;;;2.23;48.44;102162.13;5013287;28;20054;-74
2021/12/22 03:36:52;;;;;;;7.57;3.53;;;;;;;2.34;47.73;102159.84;5012340;28;20080;-74
2021/12/22 03:39:19;;;;;;;8.40;3.72;;;;;;;2.67;47.84;102156.53;5013835;28;20132;-75
2021/12/22 03:41:46;;;;;;;14.80;4.70;;;;;;;2.87;46.71;102164.38;5011387;28;20069;-74
2021/12/22 03:44:13;;;;;;;12.50;3.90;;;;;;;2.67;47.46;102167.97;5012596;28;20133;-74
2021/12/22 03:46:40;;;;;;;12.73;4.13;;;;;;;2.65;47.79;102169.84;5013749;28;20109;-74
2021/12/22 03:49:08;;;;;;;12.48;4.03;;;;;;;2.12;47.95;102165.25;5013874;28;20149;-74
2021/12/22 03:51:36;;;;;;;6.57;2.95;;;;;;;2.58;47.38;102162.25;5013849;28;21156;-74
2021/12/22 03:54:06;;;;;;;22.77;6.22;;;;;;;2.46;47.15;102152.25;5013170;28;20090;-74
2021/12/22 03:56:34;;;;;;;12.32;3.78;;;;;;;2.52;46.73;102155.47;5014343;28;20057;-74
2021/12/22 03:59:01;;;;;;;8.85;3.17;;;;;;;2.26;47.19;102156.69;5013397;28;20104;-75
2021/12/22 04:01:27;;;;;;;10.73;3.33;;;;;;;2.43;46.93;102154.09;5013948;28;20049;-74
2021/12/22 04:03:59;;;;;;;11.90;3.35;;;;;;;2.69;46.18;102152.03;5014517;28;20100;-74
2021/12/22 04:06:25;;;;;;;7.28;2.35;;;;;;;2.94;45.82;102154.31;5012246;28;20077;-74
2021/12/22 04:08:52;;;;;;;11.98;3.88;;;;;;;2.34;47.72;102149.25;5011327;28;20076;-74
2021/12/22 04:11:18;;;;;;;8.93;3.75;;;;;;;2.30;47.30;102144.16;5014919;28;20065;-74
2021/12/22 04:13:45;;;;;;;9.52;3.83;;;;;;;1.75;48.31;102152.81;5014487;28;20557;-74
2021/12/22 04:16:11;;;;;;;11.68;4.03;;;;;;;1.95;47.73;102146.63;5013817;28;20133;-74
2021/12/22 04:18:38;;;;;;;12.00;3.97;;;;;;;2.40;46.87;102153.38;5012569;28;20490;-74
2021/12/22 04:21:04;;;;;;;11.50;3.67;;;;;;;2.68;45.78;102155.56;5010023;28;20038;-74
2021/12/22 04:23:31;;;;;;;7.95;3.80;;;;;;;2.52;46.78;102150.19;5014626;28;20045;-74
2021/12/22 04:25:57;;;;;;;8.95;3.97;;;;;;;2.26;47.51;102156.69;5012436;28;20066;-74
2021/12/22 04:28:24;;;;;;;11.93;4.18;;;;;;;1.93;47.92;102159.94;5012739;28;20084;-75
2021/12/22 04:30:51;;;;;;;14.00;4.75;;;;;;;1.55;48.67;102151.03;5015846;28;20069;-74
2021/12/22 04:33:19;;;;;;;11.27;4.90;;;;;;;2.04;47.69;102142.72;5016062;28;20137;-74
2021/12/22 04:35:47;;;;;;;13.30;5.15;;;;;;;2.12;47.27;102149.38;5017598;28;20133;-74
2021/12/22 04:38:14;;;;;;;13.70;5.75;;;;;;;1.87;47.99;102143.47;5016916;28;20048;-74
2021/12/22 04:40:41;;;;;;;9.65;5.28;;;;;;;2.35;46.85;102150.13;5015750;28;20073;-74
2021/12/22 04:43:07;;;;;;;9.25;5.13;;;;;;;2.52;46.84;102151.97;5017711;28;20160;-74
2021/12/22 04:45:34;;;;;;;14.70;5.38;;;;;;;2.71;46.26;102151.94;5017965;28;20093;-74
2021/12/22 04:48:01;;;;;;;19.55;6.93;;;;;;;2.40;47.25;102146.31;5018425;28;20062;-74
2021/12/22 04:50:27;;;;;;;14.88;6.20;;;;;;;2.56;46.71;102151.75;5018215;28;20046;-74
2021/12/22 04:53:16;;;;;;;12.27;6.45;;;;;;;2.22;46.64;102148.97;5016757;28;20454;-74
2021/12/22 04:55:42;;;;;;;13.48;6.30;;;;;;;2.72;46.01;102146.56;5018524;28;20052;-74
2021/12/22 04:58:10;;;;;;;18.30;6.47;;;;;;;2.64;46.41;102141.63;5018529;28;20066;-74
2021/12/22 05:00:38;;;;;;;19.17;6.85;;;;;;;2.43;47.13;102148.81;5018315;28;20080;-74
2021/12/22 05:03:06;;;;;;;13.77;6.85;;;;;;;1.59;49.21;102149.97;5018212;28;20104;-74
2021/12/22 05:05:32;;;;;;;15.60;7.25;;;;;;;1.78;48.20;102150.00;5017234;28;20070;-74
2021/12/22 05:07:59;;;;;;;20.08;7.45;;;;;;;2.36;47.51;102150.03;5017107;28;20072;-74
2021/12/22 05:10:27;;;;;;;15.35;8.15;;;;;;;2.56;47.09;102142.94;5017971;28;20442;-74
2021/12/22 05:12:54;;;;;;;18.80;8.35;;;;;;;2.11;47.70;102147.66;5017419;28;20068;-74
2021/12/22 05:15:23;;;;;;;15.95;8.00;;;;;;;2.42;46.78;102146.25;5017225;28;20141;-74
2021/12/22 05:20:20;;;;;;;19.70;8.48;;;;;;;2.78;45.68;102148.06;5016981;28;20057;-74
2021/12/22 05:22:47;;;;;;;19.50;8.20;;;;;;;2.56;46.62;102145.59;5016981;28;20070;-74
2021/12/22 05:25:15;;;;;;;15.93;8.20;;;;;;;2.72;46.05;102146.56;5017104;28;20558;-74
2021/12/22 05:27:41;;;;;;;23.77;9.10;;;;;;;2.21;47.31;102153.41;5017260;28;20126;-74
2021/12/22 05:30:10;;;;;;;16.52;8.93;;;;;;;2.79;46.38;102150.66;5017148;28;20049;-74
2021/12/22 05:32:37;;;;;;;17.77;9.13;;;;;;;2.73;46.56;102144.78;5017057;28;20113;-74
2021/12/22 05:35:07;;;;;;;21.70;9.70;;;;;;;2.78;45.97;102142.75;5017152;28;20045;-74
2021/12/22 05:37:34;;;;;;;20.60;9.68;;;;;;;2.74;45.72;102143.84;5016872;28;20068;-74
2021/12/22 05:40:01;;;;;;;21.88;10.25;;;;;;;2.35;47.02;102137.72;5016401;28;20163;-74
2021/12/22 05:42:27;;;;;;;17.70;9.30;;;;;;;2.61;47.37;102138.25;5016095;28;20096;-74
2021/12/22 05:44:54;;;;;;;18.80;9.10;;;;;;;2.45;47.86;102139.94;5017747;28;20128;-74
2021/12/22 05:47:21;;;;;;;18.88;10.65;;;;;;;2.29;47.81;102134.50;5017727;28;20110;-74
2021/12/22 05:49:49;;;;;;;20.33;10.52;;;;;;;2.31;47.83;102144.09;5016990;28;20489;-74
2021/12/22 05:52:16;;;;;;;27.33;10.18;;;;;;;2.69;46.72;102144.06;5016975;28;20042;-74
2021/12/22 05:54:42;;;;;;;24.80;10.35;;;;;;;2.64;47.73;102136.31;5017884;28;20545;-74
2021/12/22 05:57:09;;;;;;;18.63;9.82;;;;;;;2.67;47.73;102137.97;5017408;28;20125;-74
2021/12/22 05:59:35;;;;;;;23.25;10.32;;;;;;;2.63;47.35;102134.63;5016650;28;20053;-74
2021/12/22 06:02:02;;;;;;;23.17;10.77;;;;;;;2.67;46.98;102138.81;5016903;28;20046;-74
2021/12/22 06:04:29;;;;;;;25.25;11.25;;;;;;;2.45;47.28;102137.31;5016080;28;20134;-74
2021/12/22 06:06:56;;;;;;;25.73;10.93;;;;;;;2.41;47.58;102134.78;5016039;28;20410;-74
2021/12/22 06:09:22;;;;;;;19.17;10.25;;;;;;;2.41;47.16;102134.78;5015028;28;20113;-73
2021/12/22 06:11:48;;;;;;;27.10;11.02;;;;;;;2.53;46.90;102136.00;5015072;28;20069;-73
2021/12/22 06:14:15;;;;;;;31.88;12.38;;;;;;;2.47;46.84;102136.28;5016865;28;20089;-73
2021/12/22 06:16:41;;;;;;;22.58;11.27;;;;;;;2.47;47.10;102141.56;5017440;28;20057;-73
2021/12/22 06:19:09;;;;;;;33.42;12.50;;;;;;;2.40;47.12;102137.50;5017170;28;20555;-73
2021/12/22 06:21:36;;;;;;;29.55;11.93;;;;;;;2.53;46.83;102130.69;5017052;28;20050;-73
2021/12/22 06:24:02;;;;;;;28.30;11.90;;;;;;;2.28;47.63;102138.94;5016992;28;20046;-73
2021/12/22 06:26:30;;;;;;;30.83;13.90;;;;;;;2.28;47.47;102138.94;5016762;28;20517;-73
2021/12/22 06:28:56;;;;;;;23.35;12.57;;;;;;;2.31;47.42;102137.94;5017849;28;20068;-73
2021/12/22 06:31:22;;;;;;;32.80;12.80;;;;;;;2.37;46.98;102140.28;5019757;28;20053;-73
2021/12/22 06:33:49;;;;;;;29.52;13.02;;;;;;;2.34;47.47;102148.38;5018566;28;20053;-73
2021/12/22 06:36:17;;;;;;;26.52;12.63;;;;;;;2.41;47.15;102150.69;5021251;28;20136;-73
2021/12/22 06:38:44;;;;;;;24.50;12.07;;;;;;;2.36;47.27;102149.19;5019913;28;20046;-73
2021/12/22 06:41:10;;;;;;;24.42;12.38;;;;;;;2.29;47.90;102151.25;5018269;28;20046;-73
2021/12/22 06:43:37;;;;;;;21.50;11.02;;;;;;;2.23;47.91;102158.63;5016820;28;20050;-74
2021/12/22 06:46:03;;;;;;;24.90;12.60;;;;;;;2.28;47.54;102154.84;5016761;28;20073;-75
2021/12/22 06:48:30;;;;;;;25.45;12.50;;;;;;;2.28;48.00;102154.84;5015777;28;20137;-73
2021/12/22 06:50:57;;;;;;;32.42;13.25;;;;;;;2.24;47.58;102150.63;5015235;28;20052;-73
2021/12/22 06:53:23;;;;;;;29.95;13.15;;;;;;;2.14;47.27;102144.03;5014922;28;20074;-73
2021/12/22 06:55:50;;;;;;;27.50;13.25;;;;;;;2.10;48.09;102150.41;5016251;28;20124;-74
2021/12/22 06:58:16;;;;;;;31.42;14.35;;;;;;;2.08;48.28;102147.81;5015461;28;20465;-73
2021/12/22 07:00:43;;;;;;;23.60;12.60;;;;;;;1.94;48.92;102145.78;5015396;28;20069;-74
2021/12/22 07:03:09;;;;;;;30.52;15.00;;;;;;;2.15;48.23;102145.72;5015647;28;20073;-74
2021/12/22 07:05:36;;;;;;;28.48;13.20;;;;;;;2.13;48.05;102150.22;5014300;28;20085;-74
2021/12/22 07:08:03;;;;;;;27.13;12.80;;;;;;;2.03;48.21;102141.88;5014512;28;20148;-74
2021/12/22 07:10:29;;;;;;;30.80;13.98;;;;;;;2.15;48.04;102149.25;5015405;28;20053;-74
2021/12/22 07:12:56;;;;;;;30.95;15.30;;;;;;;2.21;48.25;102149.91;5015216;28;20546;-74
2021/12/22 07:15:22;;;;;;;34.10;13.07;;;;;;;2.12;48.78;102148.53;5016425;28;20136;-74
2021/12/22 07:17:50;;;;;;;28.95;12.85;;;;;;;2.24;48.36;102152.41;5015263;28;20057;-74
2021/12/22 07:20:16;;;;;;;37.67;14.13;;;;;;;2.00;49.13;102149.94;5015357;28;20072;-74
2021/12/22 07:22:43;;;;;;;31.58;14.43;;;;;;;1.90;49.50;102148.63;5014362;28;20104;-74
2021/12/22 07:25:12;;;;;;;28.60;13.88;;;;;;;2.11;48.97;102152.97;5013573;28;20542;-75
2021/12/22 07:27:38;;;;;;;30.42;13.75;;;;;;;1.87;49.06;102154.03;5014139;28;20136;-74
2021/12/22 07:30:05;;;;;;;29.92;13.30;;;;;;;2.19;48.55;102152.59;5014165;28;20105;-76
2021/12/22 07:32:32;;;;;;;29.50;13.73;;;;;;;2.23;48.49;102145.38;5015932;28;20057;-75
2021/12/22 07:35:07;;;;;;;30.75;13.65;;;;;;;2.28;48.38;102144.25;5016091;28;20136;-74
2021/12/22 07:37:37;;;;;;;27.73;12.90;;;;;;;2.25;48.82;102149.69;5014821;28;20080;-75
2021/12/22 07:40:09;;;;;;;26.83;15.05;;;;;;;2.23;49.00;102156.81;5013909;28;20125;-75
2021/12/22 07:42:36;;;;;;;41.15;14.82;;;;;;;1.88;49.76;102150.47;5014294;28;20056;-75
2021/12/22 07:45:04;;;;;;;36.50;14.48;;;;;;;2.09;48.96;102157.44;5013362;28;20527;-75
2021/12/22 07:47:30;;;;;;;34.75;14.60;;;;;;;1.99;49.40;102155.28;5013771;28;20077;-74
2021/12/22 07:49:57;;;;;;;29.98;14.77;;;;;;;2.21;48.53;102157.84;5014899;28;20481;-77
2021/12/22 07:52:27;;;;;;;32.00;14.10;;;;;;;2.04;49.00;102155.97;5016459;28;20137;-76
2021/12/22 07:54:54;;;;;;;28.27;13.82;;;;;;;2.25;48.46;102148.81;5014726;28;20050;-76
2021/12/22 07:57:21;;;;;;;44.47;13.95;;;;;;;2.20;48.70;102141.09;5015747;28;20563;-74
2021/12/22 07:59:47;;;;;;;34.67;15.13;;;;;;;2.09;48.81;102148.66;5015747;28;20062;-75
2021/12/22 08:02:14;;;;;;;32.58;13.75;;;;;;;1.85;49.51;102154.09;5016394;28;20077;-75
2021/12/22 08:04:43;;;;;;;32.70;14.38;;;;;;;1.84;49.37;102155.03;5020309;28;20050;-75
2021/12/22 08:07:09;;;;;;;31.08;14.82;;;;;;;1.95;48.78;102155.44;5020395;28;20076;-75
2021/12/22 08:09:36;;;;;;;35.03;15.07;;;;;;;1.98;48.77;102156.25;5019888;28;20085;-75
2021/12/22 08:12:06;;;;;;;33.08;15.60;;;;;;;2.18;48.56;102157.03;5019511;28;20116;-75
2021/12/22 08:14:37;;;;;;;36.53;15.77;;;;;;;2.04;49.07;102158.63;5018083;28;20053;-76
2021/12/22 08:17:04;;;;;;;25.05;11.57;;;;;;;1.95;49.18;102165.16;5017941;28;20052;-75
2021/12/22 08:19:30;;;;;;;33.08;15.73;;;;;;;1.45;50.08;102168.22;5018586;28;20459;-75
2021/12/22 08:21:57;;;;;;;41.35;16.30;;;;;;;1.89;49.29;102168.06;5018033;28;20069;-74
2021/12/22 08:24:24;;;;;;;35.95;16.35;;;;;;;2.21;48.50;102171.94;5018071;28;20073;-76
2021/12/22 08:26:51;;;;;;;40.65;15.52;;;;;;;2.41;47.94;102171.88;5017488;28;20069;-76
2021/12/22 08:29:17;;;;;;;34.58;14.63;;;;;;;1.73;49.08;102165.25;5017227;28;20038;-76
2021/12/22 08:31:44;;;;;;;35.92;14.75;;;;;;;1.97;48.65;102160.69;5017525;28;20073;-75
2021/12/22 08:34:13;;;;;;;36.85;15.57;;;;;;;2.08;48.50;102162.84;5017209;28;20061;-76
2021/12/22 08:39:26;;;;;;;31.95;14.65;;;;;;;2.47;47.74;102160.13;5017144;28;20092;-76
2021/12/22 08:41:52;;;;;;;33.78;14.73;;;;;;;2.18;48.15;102154.41;5017716;28;20489;-75
2021/12/22 08:44:19;;;;;;;35.80;13.73;;;;;;;2.03;47.86;102151.59;4999066;28;20062;-76
2021/12/22 08:46:49;;;;;;;32.72;14.82;;;;;;;2.37;47.80;102154.41;4998527;28;20138;-76
2021/12/22 08:49:17;;;;;;;31.33;14.35;;;;;;;2.06;48.09;102154.97;4997626;28;20124;-76
2021/12/22 08:51:43;;;;;;;32.38;14.40;;;;;;;2.25;47.85;102162.91;4997304;28;20142;-76
2021/12/22 08:54:10;;;;;;;38.22;14.93;;;;;;;1.89;48.27;102155.69;4997378;28;20478;-76
2021/12/22 08:56:37;;;;;;;34.95;14.77;;;;;;;1.34;50.28;102154.63;4997755;28;20074;-76
2021/12/22 08:59:06;;;;;;;32.13;13.80;;;;;;;1.74;49.42;102148.44;4998301;28;20129;-76
2021/12/22 09:01:33;;;;;;;30.73;13.70;;;;;;;1.98;48.76;102157.09;4998431;28;20392;-76
2021/12/22 09:04:00;;;;;;;29.25;13.48;;;;;;;2.28;47.99;102152.19;4997526;28;20065;-76
2021/12/22 09:06:27;;;;;;;42.10;15.90;;;;;;;2.74;46.82;102149.13;4997685;28;20521;-76
2021/12/22 09:08:53;;;;;;;30.80;14.35;;;;;;;2.66;46.79;102153.03;4995734;28;20073;-76
2021/12/22 09:11:20;;;;;;;32.50;14.35;;;;;;;2.65;47.45;102153.06;4998088;28;20432;-76
2021/12/22 09:13:47;;;;;;;28.58;14.05;;;;;;;2.35;47.22;102150.97;4996723;28;20236;-76
2021/12/22 09:16:14;;;;;;;39.28;16.08;;;;;;;2.58;47.68;102141.94;4996417;28;20053;-76
2021/12/22 09:18:41;;;;;;;33.85;15.27;;;;;;;2.02;48.36;102147.22;4996372;28;20134;-76
2021/12/22 09:21:10;;;;;;;34.20;15.38;;;;;;;1.77;49.08;102143.00;4995714;28;20097;-76
2021/12/22 09:23:37;;;;;;;31.00;15.98;;;;;;;2.40;48.17;102142.78;5011565;28;20093;-76
2021/12/22 09:26:05;;;;;;;29.88;15.40;;;;;;;2.96;46.46;102140.97;4997174;28;20558;-76
2021/12/22 09:28:32;;;;;;;39.10;16.25;;;;;;;2.71;46.76;102130.72;4996291;28;20118;-76
2021/12/22 09:30:59;;;;;;;34.58;18.00;;;;;;;2.53;47.15;102137.78;4995727;28;20129;-76
2021/12/22 09:33:25;;;;;;;36.15;16.25;;;;;;;2.50;47.48;102144.06;4997008;28;20108;-77
2021/12/22 09:35:53;;;;;;;41.30;17.95;;;;;;;2.71;47.48;102136.88;4995546;28;20450;-76
2021/12/22 09:38:20;;;;;;;36.95;18.35;;;;;;;2.50;47.80;102138.78;5010736;28;20073;-76
2021/12/22 09:40:47;;;;;;;35.10;18.05;;;;;;;2.07;48.57;102137.31;4996265;28;20100;-76
2021/12/22 09:43:14;;;;;;;38.67;18.77;;;;;;;2.86;46.98;102137.94;5006844;28;20140;-76
2021/12/22 09:45:46;;;;;;;38.13;19.75;;;;;;;3.17;45.98;102134.63;5014989;28;20475;-76
2021/12/22 09:52:16;;;;;;;38.33;19.58;;;;;;;2.66;46.65;102130.97;5015729;28;20046;-76
2021/12/22 09:53:40;;;;;;;42.08;20.08;;;;;;;1.80;49.17;102126.13;5015418;28;20479;-76
2021/12/22 09:56:06;;;;;;;39.55;18.70;;;;;;;2.38;47.56;102118.19;5014480;28;20070;-77
2021/12/22 09:58:36;;;;;;;39.60;19.75;;;;;;;2.97;46.20;102121.50;5015126;28;20073;-77
2021/12/22 10:01:03;;;;;;;39.03;18.83;;;;;;;3.15;45.13;102120.56;5015673;28;20457;-77
2021/12/22 10:03:31;;;;;;;41.63;19.50;;;;;;;2.88;46.03;102115.72;5015296;28;20510;-77
2021/12/22 10:05:57;;;;;;;42.88;20.60;;;;;;;3.20;45.26;102105.28;5015294;28;20066;-77
2021/12/22 10:08:26;;;;;;;47.63;22.15;;;;;;;2.82;45.67;102112.50;5015709;28;20113;-77
2021/12/22 10:11:05;;;;;;;40.25;19.70;;;;;;;3.82;43.69;102110.88;5016312;28;20057;-77
2021/12/22 10:13:33;;;;;;;38.28;19.95;;;;;;;3.82;43.20;102117.03;5014801;28;20054;-77
2021/12/22 10:16:18;;;;;;;38.45;20.08;;;;;;;3.41;43.63;102121.88;5015694;28;20096;-77
2021/12/22 10:18:45;;;;;;;38.97;20.60;;;;;;;3.13;44.76;102115.38;5018305;28;20056;-77
2021/12/22 10:21:18;;;;;;;39.38;20.30;;;;;;;3.51;43.85;102106.34;5017763;28;20050;-77
2021/12/22 10:23:51;;;;;;;38.17;20.98;;;;;;;3.84;43.00;102109.00;5016563;28;20390;-78
2021/12/22 10:26:21;;;;;;;40.58;20.25;;;;;;;4.02;42.43;102108.00;5019397;28;20065;-77
2021/12/22 10:28:56;;;;;;;41.47;19.83;;;;;;;4.69;41.57;102103.41;5017798;28;20050;-77
2021/12/22 10:31:38;;;;;;;37.20;18.92;;;;;;;5.33;40.18;102101.44;5016085;28;20073;-77
2021/12/22 10:34:23;;;;;;;39.42;19.70;;;;;;;5.36;40.11;102095.94;5014959;28;20046;-77
2021/12/22 10:36:57;;;;;;;39.15;19.42;;;;;;;5.66;39.38;102090.50;5013743;28;20537;-77
2021/12/22 10:39:32;;;;;;;35.72;17.88;;;;;;;5.25;39.99;102091.25;5016191;28;20050;-77
2021/12/22 10:42:17;;;;;;;34.10;19.52;;;;;;;5.07;40.28;102100.31;5014943;28;20077;-77
2021/12/22 10:44:47;;;;;;;32.38;17.60;;;;;;;4.06;42.52;102093.63;5027366;28;20057;-77
2021/12/22 10:47:33;;;;;;;35.60;18.50;;;;;;;5.00;40.78;102085.66;5019919;28;20548;-77
2021/12/22 10:50:03;;;;;;;33.80;18.00;;;;;;;5.34;39.78;102088.97;5019468;28;20068;-77
2021/12/22 10:52:31;;;;;;;39.13;18.63;;;;;;;5.08;40.07;102094.06;5019946;28;20121;-77
2021/12/22 10:55:13;;;;;;;37.45;18.55;;;;;;;5.98;38.93;102087.69;5019001;28;20371;-77
2021/12/22 10:57:43;;;;;;;35.10;18.85;;;;;;;5.39;40.13;102081.59;5019705;28;20096;-79
2021/12/22 11:00:21;;;;;;;34.42;18.25;;;;;;;5.83;39.10;102081.47;5018097;28;20069;-77
2021/12/22 11:03:03;;;;;;;34.50;19.67;;;;;;;5.95;38.54;102074.53;5018580;28;20050;-77
2021/12/22 11:05:30;;;;;;;36.08;20.67;;;;;;;6.38;37.64;102071.81;5018549;28;20056;-77
2021/12/22 11:07:59;;;;;;;35.10;18.73;;;;;;;6.34;37.37;102071.16;5019521;28;21472;-77
2021/12/22 11:10:28;;;;;;;32.97;19.02;;;;;;;5.85;39.05;102078.75;5020716;28;20045;-77
2021/12/22 11:13:04;;;;;;;38.33;20.00;;;;;;;5.08;40.04;102082.56;5019993;28;20046;-77
2021/12/22 11:15:40;;;;;;;36.17;19.38;;;;;;;5.83;38.74;102076.16;5019482;28;20046;-77
2021/12/22 11:18:23;;;;;;;32.90;18.20;;;;;;;5.90;38.47;102071.31;5013816;28;20069;-77
2021/12/22 11:21:15;;;;;;;34.35;18.55;;;;;;;5.21;39.61;102067.56;5018840;28;20121;-76
2021/12/22 11:23:43;;;;;;;42.20;19.23;;;;;;;4.37;41.39;102077.78;5017120;28;20069;-77
2021/12/22 11:26:12;;;;;;;37.47;19.20;;;;;;;3.99;41.67;102064.84;5009966;28;20403;-77
2021/12/22 11:28:39;;;;;;;32.70;18.40;;;;;;;4.29;41.30;102073.75;5016272;28;20076;-77
2021/12/22 11:31:07;;;;;;;39.03;19.02;;;;;;;3.95;41.84;102069.47;5019062;28;20431;-76
2021/12/22 11:33:35;;;;;;;30.90;17.02;;;;;;;4.17;41.24;102068.25;5017459;28;20050;-77
2021/12/22 11:36:03;;;;;;;33.17;17.02;;;;;;;3.76;42.74;102069.63;5016170;28;20057;-77
2021/12/22 11:38:32;;;;;;;35.17;17.75;;;;;;;4.30;41.34;102069.28;5016849;28;20068;-76
2021/12/22 11:41:13;;;;;;;34.33;18.10;;;;;;;4.02;41.98;102064.66;5018117;28;20073;-76
2021/12/22 11:43:42;;;;;;;33.95;17.95;;;;;;;4.59;41.20;102067.69;5016943;28;20465;-76
2021/12/22 11:46:10;;;;;;;34.65;17.60;;;;;;;4.23;42.04;102062.63;5014371;28;20057;-76
2021/12/22 11:48:38;;;;;;;41.53;18.42;;;;;;;4.62;41.01;102053.34;5014359;28;20380;-76
2021/12/22 11:51:22;;;;;;;37.72;19.73;;;;;;;4.87;39.99;102055.41;5013675;28;20058;-76